Jacinto, Nebraska
Current Conditions -  °F | °C
As of 8:35 AM on Thursday 30 Oct 2014 (Local Time) from KIBM Reporting Station
Clear Clear  
Wind Chill: 36°   Ceiling: Unl
Heat Index: 42°   Visibility: 10mi
Dew Point: 28°   Wind: 8mph
Humidity: 57%   Direction: 310°NW
Pressure: 30.32"   Gusts: NA
Location:  41.202°N, 103.47°W
Report Text: KIBM 301435Z AUTO 31007KT 10SM CLR 05/M02 A3032 RMK AO2 T00531025
Loading
Personal Weather Stations






























Interactive Weather Map
Tropical Storm Tracking
New forecast layout! Learn more

10-Day Weather Forecast

Advertisements
Track Severe Weather on mobile